createdAt,value
2023-11-05T00:01:51.550Z,2.17
2023-11-05T00:04:39.070Z,2.60
2023-11-05T00:07:26.348Z,2.97
2023-11-05T00:10:13.604Z,2.78
2023-11-05T00:13:00.814Z,2.45
2023-11-05T00:15:52.900Z,2.35
2023-11-05T00:18:40.947Z,2.50
2023-11-05T00:21:28.212Z,3.03
2023-11-05T00:24:19.256Z,2.60
2023-11-05T00:27:06.945Z,2.08
2023-11-05T00:29:55.539Z,2.75
2023-11-05T00:32:42.777Z,2.25
2023-11-05T00:35:31.457Z,2.67
2023-11-05T00:38:18.770Z,2.20
2023-11-05T00:41:06.090Z,2.13
2023-11-05T00:43:53.296Z,2.28
2023-11-05T00:46:40.492Z,1.80
2023-11-05T00:49:27.693Z,1.95
2023-11-05T00:52:15.263Z,1.80
2023-11-05T00:55:02.460Z,2.10
2023-11-05T00:57:49.835Z,1.60
2023-11-05T01:00:37.060Z,1.60
2023-11-05T01:03:24.325Z,1.73
2023-11-05T01:06:11.554Z,2.00
2023-11-05T01:08:59.214Z,2.03
2023-11-05T01:11:47.988Z,1.67
2023-11-05T01:14:35.232Z,1.83
2023-11-05T01:17:23.242Z,1.63
2023-11-05T01:20:10.999Z,1.63
2023-11-05T01:22:58.259Z,1.60
2023-11-05T01:25:45.520Z,1.60
2023-11-05T01:28:32.753Z,1.60
2023-11-05T01:31:19.965Z,1.42
2023-11-05T01:34:07.158Z,2.10
2023-11-05T01:36:54.517Z,1.73
2023-11-05T01:39:41.911Z,1.35
2023-11-05T01:42:29.090Z,1.85
2023-11-05T01:45:16.440Z,1.70
2023-11-05T01:48:03.861Z,1.45
2023-11-05T01:50:51.182Z,1.42
2023-11-05T01:53:38.406Z,1.42
2023-11-05T01:56:28.761Z,1.55
2023-11-05T01:59:18.679Z,1.80
2023-11-05T02:02:08.619Z,1.63
2023-11-05T02:04:56.314Z,1.65
2023-11-05T02:07:44.409Z,1.50
2023-11-05T02:10:31.709Z,1.77
2023-11-05T02:13:18.940Z,1.50
2023-11-05T02:16:06.829Z,1.85
2023-11-05T02:18:54.061Z,1.95
2023-11-05T02:21:45.625Z,1.83
2023-11-05T02:24:33.054Z,1.60
2023-11-05T02:27:20.340Z,2.15
2023-11-05T02:30:08.179Z,1.60
2023-11-05T02:32:57.687Z,2.20
2023-11-05T02:35:44.940Z,2.33
2023-11-05T02:38:32.127Z,1.90
2023-11-05T02:41:19.328Z,2.28
2023-11-05T02:44:06.858Z,1.83
2023-11-05T02:46:54.040Z,1.88
2023-11-05T02:49:42.985Z,1.67
2023-11-05T02:52:30.294Z,1.63
2023-11-05T02:55:17.620Z,1.80
2023-11-05T02:58:04.890Z,1.75
2023-11-05T03:00:52.122Z,1.90
2023-11-05T03:03:39.649Z,1.60
2023-11-05T03:06:26.941Z,1.60
2023-11-05T03:09:14.833Z,1.75
2023-11-05T03:12:03.016Z,1.65
2023-11-05T03:14:51.796Z,1.50
2023-11-05T03:17:39.262Z,1.70
2023-11-05T03:20:26.535Z,1.60
2023-11-05T03:23:13.775Z,1.77
2023-11-05T03:26:01.005Z,1.60
2023-11-05T03:28:48.169Z,1.60
2023-11-05T03:31:35.397Z,1.60
2023-11-05T03:34:23.103Z,1.60
2023-11-05T03:37:10.331Z,1.77
2023-11-05T03:39:57.538Z,1.60
2023-11-05T03:42:44.675Z,1.70
2023-11-05T03:45:31.874Z,1.45
2023-11-05T03:48:19.172Z,1.45
2023-11-05T03:51:06.593Z,1.60
2023-11-05T03:53:53.790Z,1.88
2023-11-05T03:56:41.584Z,2.00
2023-11-05T03:59:28.829Z,1.92
2023-11-05T04:02:16.023Z,1.60
2023-11-05T04:05:03.515Z,1.50
2023-11-05T04:07:51.111Z,1.70
2023-11-05T04:10:38.335Z,2.03
2023-11-05T04:13:25.554Z,1.85
2023-11-05T04:16:13.045Z,1.77
2023-11-05T04:19:00.385Z,2.10
2023-11-05T04:21:47.529Z,2.00
2023-11-05T04:24:34.744Z,1.88
2023-11-05T04:27:22.101Z,1.73
2023-11-05T04:30:09.811Z,2.20
2023-11-05T04:32:57.010Z,1.88
2023-11-05T04:35:44.335Z,1.98
2023-11-05T04:38:31.557Z,1.63
2023-11-05T04:41:23.156Z,2.05
2023-11-05T04:44:10.367Z,2.22
2023-11-05T04:46:57.913Z,2.05
2023-11-05T04:49:45.171Z,2.35
2023-11-05T04:52:32.536Z,2.30
2023-11-05T04:55:20.166Z,1.77
2023-11-05T04:58:07.398Z,1.85
2023-11-05T05:00:56.029Z,2.15
2023-11-05T05:03:43.420Z,2.70
2023-11-05T05:06:30.840Z,2.03
2023-11-05T05:09:18.859Z,2.10
2023-11-05T05:12:06.656Z,2.03
2023-11-05T05:14:53.838Z,2.35
2023-11-05T05:17:41.052Z,2.92
2023-11-05T05:20:28.253Z,2.55
2023-11-05T05:23:15.484Z,2.47
2023-11-05T05:26:04.159Z,2.55
2023-11-05T05:28:51.354Z,2.40
2023-11-05T05:31:38.770Z,2.40
2023-11-05T05:34:26.140Z,2.15
2023-11-05T05:37:15.629Z,2.30
2023-11-05T05:40:02.945Z,1.88
2023-11-05T05:42:50.317Z,2.10
2023-11-05T05:45:37.522Z,2.28
2023-11-05T05:48:25.760Z,2.33
2023-11-05T05:51:16.025Z,2.15
2023-11-05T05:54:04.200Z,2.20
2023-11-05T05:56:51.579Z,2.47
2023-11-05T05:59:38.905Z,2.60
2023-11-05T06:02:26.173Z,2.63
2023-11-05T06:05:13.475Z,2.53
2023-11-05T06:08:00.730Z,2.42
2023-11-05T06:10:48.116Z,2.10
2023-11-05T06:13:38.524Z,2.33
2023-11-05T06:16:25.818Z,2.63
2023-11-05T06:19:13.149Z,2.35
2023-11-05T06:22:01.083Z,2.95
2023-11-05T06:24:48.340Z,3.10
2023-11-05T06:27:36.216Z,2.83
2023-11-05T06:30:24.109Z,3.13
2023-11-05T06:33:11.418Z,3.30
2023-11-05T06:36:02.530Z,2.80
2023-11-05T06:38:49.713Z,3.55
2023-11-05T06:41:36.972Z,3.08
2023-11-05T06:44:24.821Z,3.28
2023-11-05T06:47:12.064Z,3.05
2023-11-05T06:49:59.469Z,2.80
2023-11-05T06:52:46.808Z,2.75
2023-11-05T06:55:34.278Z,2.83
2023-11-05T06:58:21.684Z,3.10
2023-11-05T07:01:09.013Z,2.97
2023-11-05T07:03:56.373Z,2.88
2023-11-05T07:06:43.654Z,2.67
2023-11-05T07:09:30.840Z,3.33
2023-11-05T07:12:18.054Z,2.70
2023-11-05T07:15:07.761Z,3.22
2023-11-05T07:17:56.305Z,3.08
2023-11-05T07:20:43.710Z,2.40
2023-11-05T07:23:30.970Z,2.47
2023-11-05T07:26:18.497Z,2.25
2023-11-05T07:29:06.035Z,2.15
2023-11-05T07:31:54.420Z,2.28
2023-11-05T07:34:41.656Z,1.60
2023-11-05T07:37:29.199Z,1.73
2023-11-05T07:40:16.631Z,1.73
2023-11-05T07:43:03.935Z,2.20
2023-11-05T07:45:51.112Z,1.70
2023-11-05T07:48:38.337Z,1.67
2023-11-05T07:51:25.620Z,2.03
2023-11-05T07:54:12.849Z,1.60
2023-11-05T07:57:00.038Z,1.70
2023-11-05T07:59:47.249Z,1.70
2023-11-05T08:02:34.765Z,1.70
2023-11-05T08:05:22.147Z,1.63
2023-11-05T08:08:09.388Z,1.77
2023-11-05T08:10:56.709Z,1.90
2023-11-05T08:13:44.614Z,1.40
2023-11-05T08:16:31.937Z,2.08
2023-11-05T08:19:19.146Z,1.83
2023-11-05T08:22:07.099Z,1.70
2023-11-05T08:24:54.311Z,2.17
2023-11-05T08:27:42.410Z,2.53
2023-11-05T08:30:29.723Z,2.45
2023-11-05T08:33:17.107Z,2.60
2023-11-05T08:36:06.578Z,2.25
2023-11-05T08:38:53.828Z,2.00
2023-11-05T08:41:45.690Z,2.05
2023-11-05T08:44:32.922Z,2.33
2023-11-05T08:47:20.094Z,2.30
2023-11-05T08:50:08.881Z,2.22
2023-11-05T08:52:56.117Z,2.40
2023-11-05T08:55:47.284Z,2.25
2023-11-05T08:58:35.598Z,2.50
2023-11-05T09:01:22.960Z,2.10
2023-11-05T09:04:10.599Z,2.03
2023-11-05T09:06:58.715Z,2.50
2023-11-05T09:09:46.881Z,2.45
2023-11-05T09:12:34.057Z,2.42
2023-11-05T09:15:21.525Z,2.35
2023-11-05T09:18:08.854Z,2.90
2023-11-05T09:20:59.301Z,2.60
2023-11-05T09:23:46.934Z,2.65
2023-11-05T09:26:36.692Z,2.97
2023-11-05T09:29:24.140Z,2.67
2023-11-05T09:47:00.920Z,3.45
2023-11-05T09:49:48.306Z,3.58
2023-11-05T09:52:39.562Z,3.13
2023-11-05T11:18:03.022Z,6.18
2023-11-05T11:20:53.378Z,5.93
2023-11-05T11:23:40.738Z,6.25
2023-11-05T11:26:27.978Z,5.30
2023-11-05T11:29:20.466Z,5.15
2023-11-05T11:32:08.280Z,4.78
2023-11-05T11:34:58.420Z,4.82
2023-11-05T11:37:45.666Z,4.60
2023-11-05T11:40:32.927Z,4.40
2023-11-05T11:43:21.926Z,4.50
2023-11-05T11:46:09.788Z,4.00
2023-11-05T11:48:56.943Z,4.00
2023-11-05T11:51:45.502Z,3.60
2023-11-05T11:54:32.738Z,3.95
2023-11-05T11:57:19.979Z,4.00
2023-11-05T12:00:12.012Z,3.40
2023-11-05T12:02:59.382Z,3.55
2023-11-05T12:05:47.125Z,3.65
2023-11-05T12:08:38.669Z,3.70
2023-11-05T12:11:30.594Z,3.55
2023-11-05T12:14:24.974Z,3.83
2023-11-05T12:17:12.476Z,3.50
2023-11-05T12:19:59.773Z,3.60
2023-11-05T12:22:47.457Z,3.28
2023-11-05T12:25:34.937Z,3.25
2023-11-05T12:28:23.515Z,3.08
2023-11-05T12:31:11.321Z,3.58
2023-11-05T12:34:00.753Z,3.47
2023-11-05T12:36:48.053Z,4.25
2023-11-05T12:39:35.457Z,3.63
2023-11-05T12:42:22.703Z,3.78
2023-11-05T12:45:10.732Z,3.72
2023-11-05T12:47:58.403Z,3.42
2023-11-05T12:50:45.740Z,4.05
2023-11-05T12:53:33.741Z,4.28
2023-11-05T12:56:21.776Z,4.40
2023-11-05T12:59:08.980Z,4.47
2023-11-05T13:02:03.031Z,4.75
2023-11-05T13:04:52.516Z,4.60
2023-11-05T13:07:40.666Z,4.03
2023-11-05T13:10:27.959Z,4.70
2023-11-05T13:13:15.804Z,4.22
2023-11-05T13:16:04.032Z,4.20
2023-11-05T13:18:51.529Z,4.20
2023-11-05T13:21:38.749Z,4.22
2023-11-05T13:24:25.968Z,4.07
2023-11-05T13:27:14.127Z,3.80
2023-11-05T13:30:01.781Z,4.40
2023-11-05T13:32:49.648Z,4.00
2023-11-05T13:35:37.017Z,3.63
2023-11-05T13:38:24.308Z,4.05
2023-11-05T13:41:13.333Z,3.53
2023-11-05T13:44:04.331Z,3.65
2023-11-05T13:46:51.957Z,3.28
2023-11-05T13:49:39.208Z,3.38
2023-11-05T13:52:26.870Z,3.00
2023-11-05T13:55:14.182Z,3.03
2023-11-05T13:58:01.628Z,2.92
2023-11-05T14:00:49.632Z,2.92
2023-11-05T14:03:36.922Z,3.45
2023-11-05T14:06:24.179Z,10.23
2023-11-05T14:09:11.721Z,2.88
2023-11-05T14:12:03.689Z,2.90
2023-11-05T14:14:51.354Z,2.60
2023-11-05T14:17:39.138Z,2.88
2023-11-05T14:20:26.549Z,2.50
2023-11-05T14:23:14.034Z,2.75
2023-11-05T14:26:01.496Z,2.60
2023-11-05T14:28:48.702Z,2.22
2023-11-05T14:31:38.100Z,1.80
2023-11-05T14:34:25.326Z,2.00
2023-11-05T14:37:12.615Z,2.42
2023-11-05T14:40:00.817Z,2.30
2023-11-05T14:42:48.111Z,2.00
2023-11-05T14:45:36.428Z,2.00
2023-11-05T14:48:27.477Z,2.40
2023-11-05T14:51:17.650Z,2.25
2023-11-05T14:54:05.354Z,2.50
2023-11-05T14:56:55.511Z,2.30
2023-11-05T14:59:42.809Z,2.28
2023-11-05T15:02:32.755Z,2.35
2023-11-05T15:05:20.755Z,2.05
2023-11-05T15:08:08.101Z,2.03
2023-11-05T15:10:55.339Z,1.80
2023-11-05T15:13:42.887Z,2.08
2023-11-05T15:16:32.459Z,1.60
2023-11-05T15:19:19.764Z,2.35
2023-11-05T15:22:10.959Z,1.65
2023-11-05T15:25:01.128Z,1.98
2023-11-05T15:27:48.385Z,2.00
2023-11-05T15:30:38.150Z,2.10
2023-11-05T15:33:29.163Z,2.00
2023-11-05T15:36:16.488Z,1.73
2023-11-05T15:39:04.275Z,2.20
2023-11-05T15:41:51.852Z,1.63
2023-11-05T15:44:38.995Z,1.60
2023-11-05T15:47:26.213Z,2.33
2023-11-05T15:50:13.761Z,2.15
2023-11-05T15:53:01.061Z,2.20
2023-11-05T15:55:48.364Z,1.80
2023-11-05T15:58:35.635Z,2.03
2023-11-05T16:01:22.905Z,2.00
2023-11-05T16:04:11.342Z,2.05
2023-11-05T16:06:58.639Z,2.00
2023-11-05T16:09:45.856Z,2.00
2023-11-05T16:12:33.465Z,2.42
2023-11-05T16:15:21.919Z,2.20
2023-11-05T16:18:13.955Z,2.40
2023-11-05T16:21:01.197Z,2.55
2023-11-05T16:23:48.389Z,1.90
2023-11-05T16:26:35.654Z,2.42
2023-11-05T16:29:22.922Z,2.22
2023-11-05T16:32:10.226Z,2.00
2023-11-05T16:34:57.448Z,2.20
2023-11-05T16:37:44.685Z,2.33
2023-11-05T16:40:33.008Z,2.08
2023-11-05T16:43:20.252Z,2.40
2023-11-05T16:46:07.456Z,2.70
2023-11-05T16:48:54.920Z,2.92
2023-11-05T16:51:46.142Z,2.67
2023-11-05T16:54:33.405Z,2.17
2023-11-05T16:57:20.595Z,2.90
2023-11-05T17:00:11.780Z,3.80
2023-11-05T17:03:03.700Z,3.05
2023-11-05T17:05:51.074Z,3.15
2023-11-05T17:08:38.803Z,2.55
2023-11-05T17:11:26.024Z,2.33
2023-11-05T17:14:14.755Z,2.47
2023-11-05T17:17:02.096Z,3.00
2023-11-05T17:19:49.482Z,2.63
2023-11-05T17:22:37.289Z,2.63
2023-11-05T17:25:24.582Z,2.97
2023-11-05T17:28:11.808Z,3.22
2023-11-05T17:30:59.018Z,3.58
2023-11-05T17:33:46.228Z,3.20
2023-11-05T17:36:33.492Z,3.05
2023-11-05T17:39:20.996Z,2.95
2023-11-05T17:42:09.046Z,2.88
2023-11-05T17:44:56.981Z,3.17
2023-11-05T17:47:45.345Z,3.47
2023-11-05T17:50:32.623Z,3.25
2023-11-05T17:53:19.822Z,2.95
2023-11-05T17:56:07.691Z,2.60
2023-11-05T17:58:55.068Z,2.60
2023-11-05T18:01:42.528Z,2.13
2023-11-05T18:04:29.979Z,2.72
2023-11-05T18:07:18.481Z,2.13
2023-11-05T18:10:06.174Z,2.20
2023-11-05T18:12:53.421Z,2.38
2023-11-05T18:15:43.465Z,2.03
2023-11-05T18:18:31.020Z,2.17
2023-11-05T18:21:18.242Z,2.47
2023-11-05T18:24:06.325Z,2.58
2023-11-05T18:26:53.497Z,2.70
2023-11-05T18:29:44.064Z,2.30
2023-11-05T18:32:31.446Z,2.22
2023-11-05T18:35:21.145Z,2.42
2023-11-05T18:38:08.468Z,2.60
2023-11-05T18:40:55.713Z,2.03
2023-11-05T18:43:43.425Z,2.85
2023-11-05T18:46:30.716Z,2.30
2023-11-05T18:49:17.982Z,2.00
2023-11-05T18:52:05.292Z,2.67
2023-11-05T18:54:54.732Z,2.63
2023-11-05T18:57:43.905Z,2.20
2023-11-05T19:00:31.153Z,1.90
2023-11-05T19:03:18.399Z,2.20
2023-11-05T19:06:06.006Z,2.40
2023-11-05T19:08:54.477Z,2.42
2023-11-05T19:11:46.482Z,3.17
2023-11-05T19:14:33.718Z,2.72
2023-11-05T19:17:21.082Z,2.38
2023-11-05T19:20:10.429Z,2.35
2023-11-05T19:22:58.630Z,2.42
2023-11-05T19:25:46.493Z,2.28
2023-11-05T19:28:33.750Z,2.60
2023-11-05T19:31:20.940Z,2.35
2023-11-05T19:34:08.216Z,2.03
2023-11-05T19:36:55.432Z,2.65
2023-11-05T19:39:43.465Z,2.55
2023-11-05T19:42:32.439Z,2.10
2023-11-05T19:45:19.624Z,2.20
2023-11-05T19:48:07.048Z,2.63
2023-11-05T19:50:54.317Z,2.33
2023-11-05T19:53:41.665Z,1.85
2023-11-05T19:56:28.929Z,2.10
2023-11-05T19:59:16.365Z,2.45
2023-11-05T20:02:14.410Z,2.33
2023-11-05T20:05:06.976Z,2.20
2023-11-05T20:07:54.272Z,2.22
2023-11-05T20:10:41.581Z,1.70
2023-11-05T20:13:28.838Z,2.63
2023-11-05T20:16:16.196Z,2.30
2023-11-05T20:19:03.443Z,1.77
2023-11-05T20:21:54.319Z,2.22
2023-11-05T20:24:41.695Z,2.17
2023-11-05T20:27:29.010Z,2.38
2023-11-05T20:30:16.268Z,2.40
2023-11-05T20:33:03.597Z,2.22
2023-11-05T20:35:52.458Z,2.10
2023-11-05T20:38:39.728Z,2.28
2023-11-05T20:41:26.938Z,2.08
2023-11-05T20:44:14.553Z,2.03
2023-11-05T20:47:03.421Z,2.22
2023-11-05T20:49:50.769Z,2.17
2023-11-05T20:52:38.141Z,1.77
2023-11-05T20:55:25.883Z,2.10
2023-11-05T20:58:13.346Z,2.25
2023-11-05T21:01:00.590Z,2.55
2023-11-05T21:03:47.800Z,2.20
2023-11-05T21:06:35.086Z,2.25
2023-11-05T21:09:22.511Z,2.10
2023-11-05T21:12:10.098Z,1.95
2023-11-05T21:14:57.291Z,2.25
2023-11-05T21:17:45.199Z,2.10
2023-11-05T21:20:32.451Z,2.00
2023-11-05T21:23:19.904Z,2.10
2023-11-05T21:26:07.180Z,2.10
2023-11-05T21:28:54.966Z,2.47
2023-11-05T21:31:42.581Z,2.40
2023-11-05T21:34:29.839Z,2.42
2023-11-05T21:37:17.014Z,2.27
2023-11-05T21:40:07.991Z,2.13
2023-11-05T21:42:57.192Z,2.38
2023-11-05T21:45:44.740Z,2.22
2023-11-05T21:48:32.422Z,1.90
2023-11-05T21:51:19.658Z,2.35
2023-11-05T21:54:07.769Z,2.80
2023-11-05T21:56:55.030Z,2.45
2023-11-05T21:59:42.857Z,2.25
2023-11-05T22:02:30.074Z,2.85
2023-11-05T22:05:17.693Z,2.45
2023-11-05T22:08:05.369Z,2.40
2023-11-05T22:10:52.620Z,2.60
2023-11-05T22:13:39.846Z,2.92
2023-11-05T22:16:27.167Z,3.05
2023-11-05T22:19:15.953Z,2.38
2023-11-05T22:22:03.249Z,2.05
2023-11-05T22:24:52.985Z,3.00
2023-11-05T22:27:42.550Z,2.42
2023-11-05T22:30:29.823Z,2.65
2023-11-05T22:33:17.144Z,2.38
2023-11-05T22:36:04.699Z,2.85
2023-11-05T22:38:52.354Z,2.70
2023-11-05T22:41:40.469Z,2.72
2023-11-05T22:44:28.447Z,3.08
2023-11-05T22:47:15.714Z,3.10
2023-11-05T22:50:05.395Z,3.40
2023-11-05T22:52:53.900Z,2.78
2023-11-05T22:55:41.123Z,2.75
2023-11-05T22:58:28.508Z,3.10
2023-11-05T23:01:16.687Z,2.60
2023-11-05T23:04:04.210Z,2.45
2023-11-05T23:06:51.729Z,2.80
2023-11-05T23:09:38.963Z,2.40
2023-11-05T23:12:26.128Z,2.28
2023-11-05T23:15:13.462Z,2.40
2023-11-05T23:18:01.180Z,2.20
2023-11-05T23:20:48.498Z,1.95
2023-11-05T23:23:35.808Z,1.80
2023-11-05T23:26:23.320Z,2.33
2023-11-05T23:29:11.053Z,2.25
2023-11-05T23:31:58.383Z,1.88
2023-11-05T23:34:45.590Z,1.90
2023-11-05T23:37:33.138Z,1.90
2023-11-05T23:40:20.391Z,1.90
2023-11-05T23:43:10.742Z,1.73
2023-11-05T23:45:57.941Z,2.17
2023-11-05T23:48:45.156Z,1.80
2023-11-05T23:51:33.659Z,1.85
2023-11-05T23:54:20.853Z,1.63
2023-11-05T23:57:08.188Z,2.10
2023-11-05T23:59:55.410Z,1.88
